createdAt,value
2022-09-22T00:01:34.671Z,5.72
2022-09-22T00:04:06.241Z,5.65
2022-09-22T00:06:37.028Z,5.40
2022-09-22T00:09:08.009Z,5.45
2022-09-22T00:14:10.453Z,5.32
2022-09-22T00:16:42.026Z,5.47
2022-09-22T00:19:16.419Z,5.25
2022-09-22T00:21:45.236Z,6.30
2022-09-22T00:24:14.044Z,5.78
2022-09-22T00:26:44.108Z,6.20
2022-09-22T00:29:13.109Z,5.13
2022-09-22T00:31:43.191Z,5.82
2022-09-22T00:34:15.799Z,5.90
2022-09-22T00:36:44.640Z,5.95
2022-09-22T00:39:13.368Z,6.45
2022-09-22T00:41:45.238Z,5.72
2022-09-22T00:44:37.213Z,6.10
2022-09-22T00:47:35.112Z,6.50
2022-09-22T00:50:13.619Z,5.55
2022-09-22T00:52:47.533Z,6.65
2022-09-22T00:55:21.279Z,5.70
2022-09-22T00:57:51.765Z,6.40
2022-09-22T01:00:20.659Z,5.93
2022-09-22T01:02:52.014Z,6.35
2022-09-22T01:05:21.758Z,6.65
2022-09-22T01:07:50.541Z,5.73
2022-09-22T01:10:19.120Z,6.25
2022-09-22T01:12:58.030Z,6.25
2022-09-22T01:15:34.394Z,6.53
2022-09-22T01:18:14.324Z,6.18
2022-09-22T01:21:22.567Z,6.13
2022-09-22T01:24:23.931Z,6.22
2022-09-22T01:27:21.977Z,5.78
2022-09-22T01:30:23.120Z,6.25
2022-09-22T01:33:11.287Z,5.95
2022-09-22T01:35:50.135Z,6.00
2022-09-22T01:38:26.806Z,5.22
2022-09-22T01:41:01.720Z,5.78
2022-09-22T01:43:39.019Z,5.60
2022-09-22T01:46:13.299Z,5.90
2022-09-22T01:48:46.681Z,6.15
2022-09-22T01:51:20.707Z,5.25
2022-09-22T01:53:54.838Z,5.82
2022-09-22T01:56:26.187Z,5.68
2022-09-22T01:58:59.016Z,5.60
2022-09-22T02:01:30.490Z,5.68
2022-09-22T02:04:05.083Z,5.80
2022-09-22T02:06:37.829Z,5.78
2022-09-22T02:09:09.080Z,6.30
2022-09-22T02:11:37.399Z,6.35
2022-09-22T02:14:08.225Z,6.35
2022-09-22T02:19:13.443Z,6.10
2022-09-22T02:21:45.645Z,6.20
2022-09-22T02:24:34.629Z,6.95
2022-09-22T02:27:07.784Z,6.28
2022-09-22T02:29:39.734Z,6.60
2022-09-22T02:32:12.217Z,6.60
2022-09-22T02:34:42.968Z,6.50
2022-09-22T02:37:20.005Z,6.72
2022-09-22T02:39:56.804Z,6.93
2022-09-22T02:42:30.279Z,6.90
2022-09-22T02:45:06.801Z,7.03
2022-09-22T02:47:39.695Z,6.43
2022-09-22T02:50:13.682Z,6.60
2022-09-22T02:52:42.131Z,6.57
2022-09-22T02:55:12.292Z,7.22
2022-09-22T02:57:40.789Z,7.50
2022-09-22T03:00:10.699Z,7.30
2022-09-22T03:02:39.650Z,7.68
2022-09-22T03:05:09.946Z,7.20
2022-09-22T03:07:38.863Z,7.15
2022-09-22T03:10:09.008Z,7.03
2022-09-22T03:13:02.524Z,7.53
2022-09-22T03:15:31.335Z,7.38
2022-09-22T03:18:00.214Z,7.70
2022-09-22T03:20:30.207Z,7.35
2022-09-22T03:22:58.962Z,7.57
2022-09-22T03:25:27.217Z,7.50
2022-09-22T03:27:55.491Z,7.20
2022-09-22T03:30:24.009Z,7.22
2022-09-22T03:32:52.390Z,7.20
2022-09-22T03:35:20.656Z,6.80
2022-09-22T03:37:50.834Z,7.43
2022-09-22T03:40:19.292Z,7.18
2022-09-22T03:42:48.321Z,6.93
2022-09-22T03:45:16.860Z,7.28
2022-09-22T03:47:46.470Z,7.07
2022-09-22T03:50:14.775Z,7.47
2022-09-22T03:52:45.219Z,7.53
2022-09-22T03:55:14.920Z,7.95
2022-09-22T03:57:44.089Z,7.18
2022-09-22T04:00:14.253Z,7.55
2022-09-22T04:05:12.068Z,8.25
2022-09-22T04:07:40.825Z,8.10
2022-09-22T04:10:09.490Z,7.57
2022-09-22T04:12:40.596Z,7.72
2022-09-22T04:15:09.764Z,8.07
2022-09-22T04:17:38.935Z,7.75
2022-09-22T04:20:09.573Z,7.65
2022-09-22T04:22:37.872Z,8.02
2022-09-22T04:25:07.795Z,7.90
2022-09-22T04:27:36.077Z,8.00
2022-09-22T04:30:07.263Z,8.60
2022-09-22T04:32:35.544Z,7.90
2022-09-22T04:35:04.421Z,7.65
2022-09-22T04:37:32.923Z,7.78
2022-09-22T04:40:01.513Z,8.25
2022-09-22T04:42:29.980Z,9.02
2022-09-22T04:45:02.326Z,7.93
2022-09-22T04:47:32.843Z,8.52
2022-09-22T04:50:01.745Z,7.63
2022-09-22T04:52:31.659Z,9.32
2022-09-22T04:55:00.237Z,15.52
2022-09-22T04:57:28.710Z,11.15
2022-09-22T04:59:57.061Z,15.43
2022-09-22T05:02:25.863Z,14.50
2022-09-22T05:04:55.787Z,10.38
2022-09-22T05:07:24.775Z,13.52
2022-09-22T05:09:53.033Z,9.23
2022-09-22T05:12:21.787Z,9.25
2022-09-22T05:14:50.072Z,8.85
2022-09-22T05:17:19.026Z,9.30
2022-09-22T05:19:47.443Z,8.27
2022-09-22T05:22:17.788Z,8.90
2022-09-22T05:24:47.160Z,25.90
2022-09-22T05:27:15.543Z,21.40
2022-09-22T05:29:43.873Z,10.68
2022-09-22T05:32:12.332Z,9.48
2022-09-22T05:34:40.712Z,12.90
2022-09-22T05:37:09.610Z,15.20
2022-09-22T05:39:39.299Z,17.60
2022-09-22T05:42:11.026Z,20.85
2022-09-22T05:44:39.561Z,28.83
2022-09-22T05:47:08.127Z,23.65
2022-09-22T05:49:36.538Z,16.40
2022-09-22T05:52:05.742Z,15.05
2022-09-22T05:54:34.015Z,12.57
2022-09-22T05:57:04.314Z,10.82
2022-09-22T05:59:32.624Z,11.25
2022-09-22T06:02:02.481Z,12.23
2022-09-22T06:04:34.712Z,15.88
2022-09-22T06:07:03.110Z,12.10
2022-09-22T06:09:31.943Z,10.45
2022-09-22T06:12:01.010Z,9.48
2022-09-22T06:14:30.878Z,10.15
2022-09-22T06:16:59.184Z,11.40
2022-09-22T06:19:28.977Z,10.27
2022-09-22T06:21:57.264Z,9.88
2022-09-22T06:24:25.759Z,9.05
2022-09-22T06:26:54.053Z,9.73
2022-09-22T06:29:22.702Z,9.48
2022-09-22T06:31:53.129Z,13.20
2022-09-22T06:34:23.290Z,10.77
2022-09-22T06:36:51.687Z,9.82
2022-09-22T06:39:20.193Z,9.18
2022-09-22T06:41:49.060Z,9.27
2022-09-22T06:44:17.854Z,15.32
2022-09-22T06:46:46.131Z,11.18
2022-09-22T06:49:16.322Z,11.45
2022-09-22T06:51:44.786Z,10.15
2022-09-22T06:54:13.623Z,10.68
2022-09-22T06:56:42.761Z,12.60
2022-09-22T06:59:13.154Z,10.32
2022-09-22T07:01:42.816Z,9.63
2022-09-22T07:04:12.878Z,9.50
2022-09-22T07:06:43.313Z,9.48
2022-09-22T07:09:12.512Z,11.25
2022-09-22T07:11:40.797Z,10.73
2022-09-22T07:14:12.778Z,17.10
2022-09-22T07:16:41.261Z,12.07
2022-09-22T07:19:10.353Z,10.95
2022-09-22T07:21:40.621Z,9.98
2022-09-22T07:24:10.288Z,10.32
2022-09-22T07:26:41.021Z,9.40
2022-09-22T07:29:13.413Z,10.65
2022-09-22T07:31:43.649Z,8.70
2022-09-22T07:34:12.758Z,10.25
2022-09-22T07:36:41.854Z,10.20
2022-09-22T07:39:12.111Z,8.98
2022-09-22T07:41:43.847Z,8.90
2022-09-22T07:44:31.665Z,8.93
2022-09-22T07:47:01.342Z,9.25
2022-09-22T07:49:29.936Z,10.00
2022-09-22T07:51:58.547Z,10.38
2022-09-22T07:54:28.632Z,8.40
2022-09-22T07:56:59.577Z,8.52
2022-09-22T07:59:28.441Z,8.80
2022-09-22T08:01:56.766Z,8.95
2022-09-22T08:04:26.891Z,8.38
2022-09-22T08:06:56.378Z,8.45
2022-09-22T08:09:26.504Z,8.35
2022-09-22T08:11:57.186Z,8.10
2022-09-22T08:14:26.614Z,8.27
2022-09-22T08:16:54.918Z,7.80
2022-09-22T08:19:25.123Z,7.50
2022-09-22T08:21:54.809Z,7.57
2022-09-22T08:24:24.317Z,7.75
2022-09-22T08:26:56.190Z,7.78
2022-09-22T08:29:26.995Z,7.63
2022-09-22T08:31:55.309Z,7.43
2022-09-22T08:34:23.645Z,6.75
2022-09-22T08:36:52.418Z,6.10
2022-09-22T08:39:20.941Z,6.82
2022-09-22T08:42:05.802Z,5.38
2022-09-22T08:44:41.409Z,5.53
2022-09-22T08:47:38.667Z,5.75
2022-09-22T08:50:37.811Z,6.00
2022-09-22T08:53:10.000Z,5.70
2022-09-22T08:55:43.582Z,5.68
2022-09-22T08:58:27.519Z,5.82
2022-09-22T09:01:06.137Z,5.50
2022-09-22T09:03:50.340Z,4.82
2022-09-22T09:06:26.329Z,5.25
2022-09-22T09:09:27.980Z,5.22
2022-09-22T09:12:18.457Z,5.03
2022-09-22T09:15:06.106Z,5.00
2022-09-22T09:17:38.687Z,5.35
2022-09-22T09:20:17.953Z,5.35
2022-09-22T09:22:53.055Z,5.30
2022-09-22T09:25:28.291Z,5.22
2022-09-22T09:28:01.182Z,5.28
2022-09-22T09:30:39.543Z,5.45
2022-09-22T09:33:17.770Z,5.28
2022-09-22T09:35:50.295Z,5.05
2022-09-22T09:38:21.953Z,5.00
2022-09-22T09:40:58.489Z,5.20
2022-09-22T09:43:28.306Z,5.97
2022-09-22T09:46:07.070Z,5.70
2022-09-22T09:48:42.997Z,5.60
2022-09-22T09:51:14.293Z,5.47
2022-09-22T09:53:45.686Z,5.63
2022-09-22T09:56:23.460Z,5.43
2022-09-22T09:59:18.385Z,5.32
2022-09-22T10:01:50.731Z,5.60
2022-09-22T10:04:29.438Z,5.50
2022-09-22T10:07:12.257Z,5.38
2022-09-22T10:09:41.557Z,5.05
2022-09-22T10:12:23.657Z,5.40
2022-09-22T10:14:54.106Z,5.50
2022-09-22T10:17:24.881Z,5.25
2022-09-22T10:19:59.241Z,5.40
2022-09-22T10:22:29.475Z,5.90
2022-09-22T10:25:02.946Z,5.55
2022-09-22T10:27:32.820Z,5.50
2022-09-22T10:30:28.679Z,5.53
2022-09-22T10:33:15.404Z,5.20
2022-09-22T10:35:47.613Z,5.32
2022-09-22T10:38:20.246Z,4.70
2022-09-22T10:40:54.647Z,4.80
2022-09-22T10:43:42.533Z,6.47
2022-09-22T10:46:50.184Z,6.28
2022-09-22T10:49:31.151Z,4.85
2022-09-22T10:52:13.955Z,5.10
2022-09-22T10:55:10.627Z,5.32
2022-09-22T10:58:00.037Z,5.05
2022-09-22T11:00:29.811Z,4.75
2022-09-22T11:03:25.620Z,4.80
2022-09-22T11:06:29.583Z,5.00
2022-09-22T11:09:25.378Z,5.13
2022-09-22T11:12:17.889Z,5.20
2022-09-22T11:15:09.049Z,5.60
2022-09-22T11:17:53.249Z,5.07
2022-09-22T11:20:34.822Z,4.72
2022-09-22T11:23:35.076Z,4.68
2022-09-22T11:26:30.200Z,5.10
2022-09-22T11:29:47.294Z,5.07
2022-09-22T11:32:37.094Z,5.20
2022-09-22T11:35:27.992Z,5.00
2022-09-22T11:38:13.387Z,4.85
2022-09-22T11:41:04.661Z,5.25
2022-09-22T11:43:48.911Z,5.30
2022-09-22T11:46:27.320Z,5.20
2022-09-22T11:49:10.328Z,5.00
2022-09-22T11:52:00.513Z,5.47
2022-09-22T11:54:46.280Z,5.35
2022-09-22T11:57:18.267Z,5.40
2022-09-22T11:59:53.027Z,5.55
2022-09-22T12:02:27.156Z,5.50
2022-09-22T12:05:01.016Z,4.90
2022-09-22T12:07:37.537Z,5.60
2022-09-22T12:10:14.702Z,4.90
2022-09-22T12:12:48.657Z,5.30
2022-09-22T12:15:25.314Z,5.97
2022-09-22T12:18:02.075Z,5.07
2022-09-22T12:20:41.152Z,5.32
2022-09-22T12:23:28.456Z,5.30
2022-09-22T12:26:06.059Z,4.88
2022-09-22T12:28:40.046Z,5.00
2022-09-22T12:31:13.256Z,5.00
2022-09-22T12:33:49.916Z,5.10
2022-09-22T12:36:28.752Z,5.00
2022-09-22T12:39:09.861Z,5.30
2022-09-22T12:41:48.327Z,5.20
2022-09-22T12:44:21.401Z,5.40
2022-09-22T12:46:52.198Z,5.50
2022-09-22T12:49:23.693Z,5.30
2022-09-22T12:51:53.086Z,5.80
2022-09-22T12:54:48.264Z,5.28
2022-09-22T12:57:31.381Z,5.10
2022-09-22T13:00:23.938Z,5.57
2022-09-22T13:02:56.581Z,5.00
2022-09-22T13:05:46.574Z,4.70
2022-09-22T13:08:49.608Z,4.55
2022-09-22T13:11:18.416Z,4.90
2022-09-22T13:13:47.977Z,4.88
2022-09-22T13:16:36.537Z,4.80
2022-09-22T13:19:11.384Z,4.95
2022-09-22T13:21:40.218Z,4.40
2022-09-22T13:24:23.697Z,4.70
2022-09-22T13:27:05.638Z,4.45
2022-09-22T13:29:35.284Z,4.93
2022-09-22T13:32:18.494Z,4.80
2022-09-22T13:34:49.590Z,4.72
2022-09-22T13:37:22.691Z,4.88
2022-09-22T13:39:54.337Z,4.80
2022-09-22T13:42:32.328Z,4.97
2022-09-22T13:45:06.677Z,4.90
2022-09-22T13:47:36.753Z,4.80
2022-09-22T13:50:11.799Z,4.90
2022-09-22T13:52:42.204Z,4.80
2022-09-22T13:55:15.852Z,4.80
2022-09-22T13:57:44.331Z,4.95
2022-09-22T14:00:24.712Z,4.50
2022-09-22T14:02:53.628Z,4.60
2022-09-22T14:05:28.187Z,4.43
2022-09-22T14:08:12.068Z,4.40
2022-09-22T14:10:43.745Z,4.20
2022-09-22T14:13:37.819Z,4.53
2022-09-22T14:16:22.767Z,4.30
2022-09-22T14:18:57.965Z,4.60
2022-09-22T14:21:28.051Z,4.35
2022-09-22T14:23:57.576Z,5.35
2022-09-22T14:26:34.544Z,7.60
2022-09-22T14:29:16.906Z,5.70
2022-09-22T14:31:49.929Z,5.07
2022-09-22T14:34:23.154Z,5.22
2022-09-22T14:36:54.415Z,5.10
2022-09-22T14:39:31.271Z,5.20
2022-09-22T14:42:09.473Z,5.00
2022-09-22T14:44:44.272Z,5.30
2022-09-22T14:47:24.486Z,4.72
2022-09-22T14:50:08.710Z,5.30
2022-09-22T14:52:42.700Z,4.93
2022-09-22T14:55:29.119Z,4.82
2022-09-22T14:58:01.803Z,5.53
2022-09-22T15:00:47.657Z,5.40
2022-09-22T15:03:21.764Z,5.72
2022-09-22T15:05:51.230Z,6.70
2022-09-22T15:08:25.321Z,6.25
2022-09-22T15:10:56.336Z,8.80
2022-09-22T15:13:31.826Z,6.22
2022-09-22T15:16:00.293Z,6.00
2022-09-22T15:18:31.074Z,5.68
2022-09-22T15:21:05.739Z,5.53
2022-09-22T15:23:40.981Z,5.35
2022-09-22T15:26:16.425Z,4.80
2022-09-22T15:28:48.470Z,5.43
2022-09-22T15:31:22.830Z,5.13
2022-09-22T15:33:51.263Z,4.97
2022-09-22T15:36:21.639Z,4.88
2022-09-22T15:38:53.096Z,5.00
2022-09-22T15:41:21.731Z,5.03
2022-09-22T15:43:50.202Z,4.97
2022-09-22T15:46:28.533Z,5.10
2022-09-22T15:49:01.132Z,5.00
2022-09-22T15:51:32.911Z,4.70
2022-09-22T15:54:02.687Z,5.07
2022-09-22T15:56:31.516Z,5.38
2022-09-22T15:59:03.180Z,4.90
2022-09-22T16:01:31.762Z,4.40
2022-09-22T16:04:01.118Z,4.30
2022-09-22T16:06:29.659Z,4.70
2022-09-22T16:08:58.644Z,4.57
2022-09-22T16:11:31.500Z,4.60
2022-09-22T16:14:03.827Z,5.07
2022-09-22T16:16:33.915Z,5.35
2022-09-22T16:19:03.621Z,4.65
2022-09-22T16:21:34.279Z,4.57
2022-09-22T16:24:11.212Z,4.30
2022-09-22T16:26:41.735Z,4.10
2022-09-22T16:29:10.513Z,4.10
2022-09-22T16:31:39.092Z,4.97
2022-09-22T16:34:08.371Z,4.72
2022-09-22T16:36:37.499Z,4.40
2022-09-22T16:39:06.582Z,4.88
2022-09-22T16:41:36.451Z,4.50
2022-09-22T16:44:06.755Z,4.78
2022-09-22T16:46:37.843Z,5.20
2022-09-22T16:49:10.882Z,5.53
2022-09-22T16:51:41.253Z,5.45
2022-09-22T16:56:41.981Z,5.70
2022-09-22T16:59:13.544Z,7.33
2022-09-22T17:01:43.749Z,5.35
2022-09-22T17:04:16.007Z,5.00
2022-09-22T17:06:44.660Z,4.78
2022-09-22T17:09:15.294Z,6.93
2022-09-22T17:14:15.828Z,4.80
2022-09-22T17:16:45.761Z,4.63
2022-09-22T17:19:17.183Z,4.53
2022-09-22T17:21:46.654Z,7.22
2022-09-22T17:24:16.124Z,7.55
2022-09-22T17:26:47.526Z,6.15
2022-09-22T17:29:19.199Z,4.90
2022-09-22T17:31:48.323Z,4.53
2022-09-22T17:34:17.097Z,4.60
2022-09-22T17:36:46.305Z,4.70
2022-09-22T17:39:14.689Z,5.15
2022-09-22T17:41:47.181Z,4.50
2022-09-22T17:44:20.864Z,4.50
2022-09-22T17:47:07.815Z,4.60
2022-09-22T17:50:05.125Z,4.85
2022-09-22T17:52:51.427Z,5.15
2022-09-22T17:55:25.608Z,5.75
2022-09-22T17:57:56.242Z,5.70
2022-09-22T18:00:27.611Z,5.97
2022-09-22T18:02:56.614Z,5.88
2022-09-22T18:05:27.203Z,7.72
2022-09-22T18:07:58.386Z,8.52
2022-09-22T18:10:34.083Z,6.20
2022-09-22T18:13:04.331Z,6.05
2022-09-22T18:15:37.001Z,6.20
2022-09-22T18:18:05.582Z,9.80
2022-09-22T18:20:34.477Z,16.63
2022-09-22T18:23:03.656Z,10.40
2022-09-22T18:25:33.875Z,6.95
2022-09-22T18:28:04.009Z,6.15
2022-09-22T18:30:34.169Z,6.20
2022-09-22T18:33:02.731Z,6.28
2022-09-22T18:35:32.209Z,6.00
2022-09-22T18:38:01.293Z,6.33
2022-09-22T18:40:30.044Z,5.95
2022-09-22T18:42:58.549Z,6.00
2022-09-22T18:45:27.043Z,5.80
2022-09-22T18:48:03.667Z,5.80
2022-09-22T18:50:35.757Z,5.72
2022-09-22T18:53:04.249Z,5.93
2022-09-22T18:55:32.532Z,6.05
2022-09-22T18:58:01.335Z,6.53
2022-09-22T19:00:29.646Z,6.40
2022-09-22T19:03:00.538Z,5.78
2022-09-22T19:05:29.171Z,10.43
2022-09-22T19:08:00.764Z,8.70
2022-09-22T19:10:29.163Z,8.13
2022-09-22T19:12:57.886Z,7.13
2022-09-22T19:15:26.168Z,7.78
2022-09-22T19:17:54.669Z,6.90
2022-09-22T19:20:24.493Z,7.05
2022-09-22T19:22:54.061Z,7.65
2022-09-22T19:25:23.458Z,8.00
2022-09-22T19:27:53.196Z,13.02
2022-09-22T19:30:24.627Z,10.13
2022-09-22T19:32:55.701Z,14.70
2022-09-22T19:35:25.410Z,11.48
2022-09-22T19:37:54.100Z,8.07
2022-09-22T19:40:25.025Z,6.63
2022-09-22T19:42:54.756Z,6.22
2022-09-22T19:45:25.570Z,6.90
2022-09-22T19:47:55.874Z,7.30
2022-09-22T19:50:25.824Z,7.38
2022-09-22T19:52:54.214Z,6.80
2022-09-22T19:55:22.822Z,6.20
2022-09-22T19:57:54.124Z,6.63
2022-09-22T20:00:26.145Z,6.80
2022-09-22T20:02:58.623Z,6.72
2022-09-22T20:05:34.877Z,6.32
2022-09-22T20:08:03.892Z,6.57
2022-09-22T20:10:32.567Z,6.97
2022-09-22T20:13:01.179Z,7.50
2022-09-22T20:15:29.900Z,8.00
2022-09-22T20:17:58.487Z,6.72
2022-09-22T20:20:26.914Z,6.55
2022-09-22T20:23:00.441Z,6.82
2022-09-22T20:25:41.570Z,6.45
2022-09-22T20:28:10.465Z,7.07
2022-09-22T20:30:39.136Z,6.68
2022-09-22T20:33:09.847Z,5.97
2022-09-22T20:35:38.331Z,6.07
2022-09-22T20:38:12.057Z,6.40
2022-09-22T20:40:41.588Z,6.13
2022-09-22T20:43:13.963Z,5.90
2022-09-22T20:45:43.441Z,5.90
2022-09-22T20:48:17.094Z,6.17
2022-09-22T20:50:45.925Z,11.63
2022-09-22T20:53:15.952Z,8.05
2022-09-22T20:55:44.356Z,6.70
2022-09-22T20:58:13.574Z,6.43
2022-09-22T21:00:42.690Z,6.50
2022-09-22T21:03:11.659Z,6.40
2022-09-22T21:05:40.040Z,6.80
2022-09-22T21:08:26.101Z,6.93
2022-09-22T21:10:55.898Z,8.07
2022-09-22T21:13:24.867Z,7.22
2022-09-22T21:16:00.727Z,6.93
2022-09-22T21:18:31.291Z,6.72
2022-09-22T21:21:01.510Z,7.47
2022-09-22T21:23:30.918Z,6.90
2022-09-22T21:26:02.497Z,6.97
2022-09-22T21:28:31.555Z,50.88
2022-09-22T21:31:02.326Z,27.23
2022-09-22T21:33:32.167Z,9.40
2022-09-22T21:36:05.384Z,6.90
2022-09-22T21:38:33.963Z,7.15
2022-09-22T21:41:05.614Z,8.48
2022-09-22T21:43:34.839Z,8.02
2022-09-22T21:46:05.984Z,8.57
2022-09-22T21:48:37.500Z,7.97
2022-09-22T21:51:07.985Z,8.32
2022-09-22T21:53:38.058Z,7.78
2022-09-22T21:56:11.622Z,7.95
2022-09-22T21:58:41.836Z,7.40
2022-09-22T22:01:12.216Z,6.95
2022-09-22T22:03:42.330Z,7.47
2022-09-22T22:06:13.496Z,7.03
2022-09-22T22:08:44.536Z,7.30
2022-09-22T22:11:20.921Z,6.53
2022-09-22T22:13:52.144Z,6.93
2022-09-22T22:16:25.215Z,7.20
2022-09-22T22:18:53.648Z,7.93
2022-09-22T22:21:24.037Z,7.75
2022-09-22T22:23:59.392Z,7.57
2022-09-22T22:26:29.988Z,7.38
2022-09-22T22:28:58.570Z,7.38
2022-09-22T22:31:27.083Z,7.68
2022-09-22T22:33:55.375Z,7.72
2022-09-22T22:36:25.084Z,7.15
2022-09-22T22:38:54.055Z,7.35
2022-09-22T22:41:22.329Z,7.85
2022-09-22T22:43:52.680Z,8.23
2022-09-22T22:46:20.982Z,8.00
2022-09-22T22:48:50.017Z,7.95
2022-09-22T22:51:20.264Z,8.45
2022-09-22T22:53:49.035Z,8.38
2022-09-22T22:56:18.824Z,8.10
2022-09-22T22:58:48.432Z,7.65
2022-09-22T23:01:20.073Z,7.72
2022-09-22T23:03:51.842Z,7.68
2022-09-22T23:06:21.821Z,7.55
2022-09-22T23:08:50.848Z,7.82
2022-09-22T23:11:23.586Z,7.60
2022-09-22T23:13:54.080Z,7.50
2022-09-22T23:16:25.985Z,7.93
2022-09-22T23:18:55.285Z,8.05
2022-09-22T23:21:23.655Z,7.70
2022-09-22T23:23:51.895Z,7.55
2022-09-22T23:26:20.331Z,7.85
2022-09-22T23:28:48.724Z,8.30
2022-09-22T23:31:19.434Z,7.82
2022-09-22T23:33:50.444Z,7.05
2022-09-22T23:36:21.298Z,7.18
2022-09-22T23:41:23.349Z,7.53
2022-09-22T23:43:52.372Z,7.68
2022-09-22T23:46:21.519Z,7.32
2022-09-22T23:48:51.330Z,6.88
2022-09-22T23:51:20.162Z,8.03
2022-09-22T23:53:48.581Z,7.13
2022-09-22T23:56:16.903Z,7.40
2022-09-22T23:58:45.402Z,7.40
